Catàleg de serveis del Meteocat
Campanya meteocatpedra

Dades de l'estació automàtica Sant Sadurní d'Anoia

?
?
Resum diari 21:30 TU
Dades diàries de l'estació meteorològica
Temperatura mitjana 24.7 °C
Temperatura màxima 32.6 °C 11:04 TU
Temperatura mínima 16.8 °C 5:06 TU
Humitat relativa mitjana 64%
Precipitació acumulada 0.0 mm
Ratxa màxima del vent (2 m) 25.2 km/h - 223º 12:48 TU
Irradiació solar global 26.1 MJ/m2

El tram horari està expressat en Temps Universal (TU). Cal sumar una hora en horari d'hivern i dues en horari d'estiu per passar a l'hora oficial.

Sant Sadurní d'Anoia

Metadades estació meteorol´gica
Municipi Sant Sadurní d'Anoia
Comarca Alt Penedès
Altitud 164 m
Data alta 11.04.2006
Estat actual Operativa
Dades de període
Període
TU
TM
°C
TX
°C
TN
°C
HRM
%
PPT
mm
VVM (2 m)
km/h
DVM (2 m)
graus
VVX (2 m)
km/h
RS
W/m2
00:00 - 00:30 19.0 19.6 18.7 84 0.0 1.8 331 6.5 0
00:30 - 01:00 19.0 19.2 18.7 83 0.0 1.4 289 6.1 0
01:00 - 01:30 19.2 19.4 19.1 80 0.0 1.8 290 5.0 0
01:30 - 02:00 18.6 19.1 18.1 84 0.0 1.4 26 6.1 0
02:00 - 02:30 18.0 18.1 17.8 87 0.0 1.4 296 4.3 0
02:30 - 03:00 17.7 17.8 17.5 88 0.0 1.8 312 5.4 0
03:00 - 03:30 17.9 18.2 17.6 86 0.0 1.1 275 2.9 0
03:30 - 04:00 17.5 17.7 17.3 88 0.0 1.4 314 4.0 0
04:00 - 04:30 17.2 17.4 17.0 88 0.0 1.4 274 3.6 0
04:30 - 05:00 17.2 17.5 17.0 89 0.0 2.2 360 4.7 8
05:00 - 05:30 17.0 17.4 16.8 90 0.0 0.7 22 3.6 44
05:30 - 06:00 18.6 19.3 17.4 84 0.0 0.7 55 5.8 124
06:00 - 06:30 19.6 20.3 19.0 79 0.0 1.1 11 4.0 171
06:30 - 07:00 21.8 23.6 20.2 71 0.0 2.5 84 6.8 318
07:00 - 07:30 23.7 24.6 23.1 65 0.0 3.2 32 15.5 307
07:30 - 08:00 24.7 25.6 23.6 63 0.0 4.7 17 14.8 440
08:00 - 08:30 26.4 27.4 25.3 58 0.0 3.6 38 10.8 528
08:30 - 09:00 27.3 28.4 26.8 54 0.0 4.0 40 13.3 656
09:00 - 09:30 28.3 29.3 27.8 51 0.0 4.0 26 13.3 638
09:30 - 10:00 29.3 30.0 28.6 48 0.0 3.2 44 10.1 793
10:00 - 10:30 29.9 31.2 28.9 47 0.0 4.0 131 12.6 847
10:30 - 11:00 30.6 31.5 29.5 45 0.0 4.0 86 13.3 874
11:00 - 11:30 31.7 32.6 30.8 42 0.0 4.0 130 15.5 933
11:30 - 12:00 31.2 32.3 30.6 43 0.0 6.5 185 18.7 728
12:00 - 12:30 31.1 32.0 30.2 46 0.0 10.1 209 21.6 875
12:30 - 13:00 31.0 31.6 30.5 47 0.0 12.2 212 25.2 893
13:00 - 13:30 30.4 31.0 29.8 47 0.0 11.2 200 25.2 774
13:30 - 14:00 29.8 30.9 29.2 48 0.0 10.4 202 21.6 603
14:00 - 14:30 30.3 30.8 29.4 46 0.0 10.8 200 24.1 816
14:30 - 15:00 29.8 30.3 29.4 46 0.0 11.2 204 22.0 715
15:00 - 15:30 29.6 30.1 29.2 45 0.0 9.7 200 19.4 534
15:30 - 16:00 29.7 30.6 29.0 46 0.0 8.3 194 19.4 548
16:00 - 16:30 29.3 30.3 28.8 47 0.0 10.4 199 22.7 386
16:30 - 17:00 28.5 28.8 28.4 48 0.0 10.1 196 22.7 373
17:00 - 17:30 27.9 28.6 27.5 51 0.0 9.7 193 24.1 321
17:30 - 18:00 27.2 27.6 26.8 53 0.0 8.6 190 24.1 219
18:00 - 18:30 26.3 26.8 25.9 55 0.0 6.5 188 16.9 50
18:30 - 19:00 25.5 25.9 25.1 62 0.0 5.4 176 16.2 28
19:00 - 19:30 24.7 25.0 24.3 65 0.0 4.3 182 13.7 6
19:30 - 20:00 24.1 24.4 24.0 70 0.0 4.3 186 10.1 0
20:00 - 20:30 23.9 24.1 23.6 73 0.0 4.0 198 9.7 0
20:30 - 21:00 23.2 23.6 23.0 76 0.0 1.4 169 5.0 0
21:00 - 21:30 22.8 23.0 22.4 78 0.0 1.4 175 4.3 0
21:30 - 22:00 22.1 22.4 21.9 80 0.0 2.2 221 3.2 0

Les dades en taronja només han passat un control de qualitat automàtic. Resta pendent la seva validació definitiva.